Login to view products.  
Thursday, February 22, 2018 (02:36 UTC)
Sharjah International Airport
ICAO Code: OMSJ
IATA Code: SHJ
  • METAR OMSJ 220230Z 15005KT 8000 NSC 15/13 Q1011=
  • TAF OMSJ 212303Z 2200/2306 12005KT 8000 NSC PROB30 2200/2205 4000 HZ BECMG 2208/2210 29010KT BECMG 2215/2217 16005KT=